Salishan — WUT4384 — position and weather

sailwx.info

Track history (hours):
 
Tides and Currents Weather Stations Pressure Air Temp Water Temp Dewpoint Dewpoint Depression Visibility Wind Speed Wind Dir Waves Ship Positions

Salishan

Owner: Sause Bros. Inc., COOS BAY, OR. More information available from US FCC via Universal Licensing System and Coast Guard Vessel Documentation Center.

Last reported at 2015-Mar-31 20:25 UTC. Time now 2015-Apr-01 09:22 UTC.
Position N 48°50' W 122°43'.

MMSI: 367007912.

Date/timePositionNaut miles runAvg speedWind from/ knotsBaromVisibWave heightAir tempDewpointWater temp
2015-Mar-31 20:25N 48°50' W 122°43'0 0.5
2015-Mar-31 19:33N 48°49' W 122°44'1 1.3
2015-Mar-31 18:32N 48°50' W 122°45'2 1.5
2015-Mar-31 17:34N 48°49' W 122°44'6 5.7
2015-Mar-31 16:34N 48°43' W 122°44'6 5.8
2015-Mar-31 15:33N 48°37' W 122°44'5 4.8
2015-Mar-31 14:34N 48°32' W 122°45'5 5.3
2015-Mar-31 13:34N 48°27' W 122°44'6 5.6
2015-Mar-31 12:34N 48°23' W 122°50'6 6.2
2015-Mar-31 11:33N 48°20' W 122°58'7 7.1
2015-Mar-31 10:34N 48°16' W 123°07'7 6.7
2015-Mar-31 09:31N 48°12' W 123°16'6 6.8
2015-Mar-31 08:33N 48°12' W 123°26'7 7.1
2015-Mar-31 07:34N 48°12' W 123°36'6 6.4
2015-Mar-31 06:33N 48°12' W 123°46'6 6.3
2015-Mar-31 05:33N 48°12' W 123°55'6 5.9
2015-Mar-31 04:32N 48°15' W 124°04'7 6.5
2015-Mar-31 03:32N 48°17' W 124°13'6 6.5
2015-Mar-31 02:33N 48°20' W 124°21'6 5.7
2015-Mar-31 01:34N 48°23' W 124°29'5 5.4
2015-Mar-31 00:34N 48°25' W 124°36'6 5.5
2015-Mar-30 23:33N 48°27' W 124°44'6 6.3
2015-Mar-30 22:34N 48°27' W 124°53'8 7.6
2015-Mar-30 21:33N 48°21' W 124°60'9 8.7
2015-Mar-30 20:32N 48°13' W 125°05'9 8.8
2015-Mar-30 19:33N 48°05' W 125°09'60 8.4
2015-Mar-30 12:21N 47°06' W 124°50'7 8.6
2015-Mar-30 11:33N 46°59' W 124°49'9 8.7
2015-Mar-30 10:33N 46°50' W 124°48'9 8.6
2015-Mar-30 09:33N 46°42' W 124°48'9 8.6
2015-Mar-30 08:33N 46°33' W 124°47'9 8.8
2015-Mar-30 07:33N 46°24' W 124°47'9 8.6
2015-Mar-30 06:33N 46°16' W 124°46'9 8.6
2015-Mar-30 05:33N 46°07' W 124°45'9 8.6
2015-Mar-30 04:33N 45°59' W 124°45'8 8.3
2015-Mar-30 03:33N 45°51' W 124°41'8 8.2
2015-Mar-30 02:33N 45°43' W 124°38'8 8.3
2015-Mar-30 01:33N 45°35' W 124°34'9 8.9
2015-Mar-30 00:34N 45°26' W 124°33'8 8.3
2015-Mar-29 23:33N 45°18' W 124°35'11 8.7
2015-Mar-29 22:16N 45°07' W 124°36'16 8.5
2015-Mar-29 20:26N 44°51' W 124°38'66 8.4
2015-Mar-29 12:32N 43°45' W 124°43'306 7.8
2015-Mar-27 21:06N 38°40' W 124°09'6 8.1
2015-Mar-27 20:22N 38°35' W 124°05'10 8.2
2015-Mar-27 19:10N 38°26' W 123°58'6 8.2
2015-Mar-27 18:25N 38°21' W 123°53'7 8.0
2015-Mar-27 17:34N 38°15' W 123°49'7 7.4
2015-Mar-27 16:34N 38°10' W 123°42'8 7.8
2015-Mar-27 15:33N 38°10' W 123°32'8 7.8
2015-Mar-27 14:33N 38°10' W 123°23'7 6.9
2015-Mar-27 13:34N 38°05' W 123°16'7 7.4
2015-Mar-27 12:34N 37°60' W 123°10'8 7.9
2015-Mar-27 11:34N 37°55' W 123°01'8 8.2
2015-Mar-27 10:33N 37°51' W 122°52'8 7.6
2015-Mar-27 09:34N 37°48' W 122°44'8 7.9
2015-Mar-27 08:33N 37°47' W 122°34'8 8.0
2015-Mar-27 07:34N 37°49' W 122°24'3 2.5
2015-Mar-27 06:34N 37°47' W 122°22'1 0.6
2015-Mar-27 05:31N 37°46' W 122°23'0 0.0
2015-Mar-27 04:31N 37°46' W 122°23'0 0.0
2015-Mar-27 03:31N 37°46' W 122°23'0 0.0
2015-Mar-27 02:31N 37°46' W 122°23'0 0.0
2015-Mar-27 01:31N 37°46' W 122°23'0 0.0
2015-Mar-27 00:31N 37°46' W 122°23'0 0.0
2015-Mar-26 23:31N 37°46' W 122°23'0 0.0
2015-Mar-26 22:31N 37°46' W 122°23'0 0.0
2015-Mar-26 21:31N 37°46' W 122°23'0 0.0
2015-Mar-26 20:31N 37°46' W 122°23'0 0.0
2015-Mar-26 19:31N 37°46' W 122°23'0 0.0
2015-Mar-26 18:28N 37°46' W 122°23'0 0.0
2015-Mar-26 17:31N 37°46' W 122°23'0 0.0
2015-Mar-26 16:28N 37°46' W 122°23'0 0.0
2015-Mar-26 15:31N 37°46' W 122°23'0 0.0
2015-Mar-26 14:31N 37°46' W 122°23'0 0.0
2015-Mar-26 13:31N 37°46' W 122°23'0 0.0
2015-Mar-26 12:31N 37°46' W 122°23'0 0.0
2015-Mar-26 11:31N 37°46' W 122°23'0 0.0
2015-Mar-26 10:31N 37°46' W 122°23'0 0.0
2015-Mar-26 09:31N 37°46' W 122°23'0 0.0
2015-Mar-26 08:31N 37°46' W 122°23'0 0.0
2015-Mar-26 07:28N 37°46' W 122°23'0 0.0
2015-Mar-26 06:31N 37°46' W 122°23'0 0.0
2015-Mar-26 05:28N 37°46' W 122°23'0 0.0
2015-Mar-26 04:34N 37°46' W 122°23'0 0.0
2015-Mar-26 03:33N 37°46' W 122°23'0 0.0
2015-Mar-26 02:33N 37°46' W 122°23'0 0.0
2015-Mar-26 01:33N 37°46' W 122°23'0 0.0
2015-Mar-26 00:33N 37°46' W 122°23'0 0.0
2015-Mar-25 23:33N 37°46' W 122°23'0 0.0
2015-Mar-25 22:33N 37°46' W 122°23'0 0.0
2015-Mar-25 21:33N 37°46' W 122°23'0 0.0
2015-Mar-25 20:33N 37°46' W 122°23'0 0.0
2015-Mar-25 19:33N 37°46' W 122°23'0 0.0
2015-Mar-25 18:33N 37°46' W 122°23'0 0.0
2015-Mar-25 17:33N 37°46' W 122°23'0 0.0
2015-Mar-25 16:34N 37°46' W 122°23'0 0.0
2015-Mar-25 15:33N 37°46' W 122°23'0 0.0
2015-Mar-25 14:33N 37°46' W 122°23'0 0.0
2015-Mar-25 13:33N 37°46' W 122°23'0 0.0
2015-Mar-25 12:33N 37°46' W 122°23'0 0.0
2015-Mar-25 11:33N 37°46' W 122°23'0 0.0
2015-Mar-25 10:33N 37°46' W 122°23'0 0.0
2015-Mar-25 09:33N 37°46' W 122°23'8 8.0
2015-Mar-25 08:33N 37°54' W 122°26'2 2.4
2015-Mar-25 07:33N 37°52' W 122°24'4 4.2
2015-Mar-25 06:33N 37°49' W 122°28'7 6.6
2015-Mar-25 05:33N 37°46' W 122°36'6 6.1
2015-Mar-25 04:33N 37°46' W 122°44'6 6.2
2015-Mar-25 03:33N 37°48' W 122°51'6 6.2
2015-Mar-25 02:33N 37°51' W 122°58'7 6.8
2015-Mar-25 01:33N 37°55' W 123°05'7 6.6
2015-Mar-25 00:33N 37°58' W 123°12'8 7.8
2015-Mar-24 23:33N 38°04' W 123°19'8 7.7
2015-Mar-24 22:33N 38°08' W 123°27'8 7.6
2015-Mar-24 21:33N 38°10' W 123°36'7 7.2
2015-Mar-24 20:33N 38°15' W 123°43'7 7.3
2015-Mar-24 19:33N 38°20' W 123°50'7 7.3
2015-Mar-24 18:33N 38°25' W 123°56'8 7.2
2015-Mar-24 17:28N 38°31' W 124°03'  
Track history (hours):
 
Tides and Currents Weather Stations Pressure Air Temp Water Temp Dewpoint Dewpoint Depression Visibility Wind Speed Wind Dir Waves Ship Positions

Salishan

Owner: Sause Bros. Inc., COOS BAY, OR. More information available from US FCC via Universal Licensing System and Coast Guard Vessel Documentation Center.

Last reported at 2015-Mar-31 20:25 UTC. Time now 2015-Apr-01 09:22 UTC.
Position N 48°50' W 122°43'.

MMSI: 367007912.

Date/timePositionNaut miles runAvg speedWind from/ knotsBaromVisibWave heightAir tempDewpointWater temp
2015-Mar-31 20:25N 48°50' W 122°43'0 0.5
2015-Mar-31 19:33N 48°49' W 122°44'1 1.3
2015-Mar-31 18:32N 48°50' W 122°45'2 1.5
2015-Mar-31 17:34N 48°49' W 122°44'6 5.7
2015-Mar-31 16:34N 48°43' W 122°44'6 5.8
2015-Mar-31 15:33N 48°37' W 122°44'5 4.8
2015-Mar-31 14:34N 48°32' W 122°45'5 5.3
2015-Mar-31 13:34N 48°27' W 122°44'6 5.6
2015-Mar-31 12:34N 48°23' W 122°50'6 6.2
2015-Mar-31 11:33N 48°20' W 122°58'7 7.1
2015-Mar-31 10:34N 48°16' W 123°07'7 6.7
2015-Mar-31 09:31N 48°12' W 123°16'6 6.8
2015-Mar-31 08:33N 48°12' W 123°26'7 7.1
2015-Mar-31 07:34N 48°12' W 123°36'6 6.4
2015-Mar-31 06:33N 48°12' W 123°46'6 6.3
2015-Mar-31 05:33N 48°12' W 123°55'6 5.9
2015-Mar-31 04:32N 48°15' W 124°04'7 6.5
2015-Mar-31 03:32N 48°17' W 124°13'6 6.5
2015-Mar-31 02:33N 48°20' W 124°21'6 5.7
2015-Mar-31 01:34N 48°23' W 124°29'5 5.4
2015-Mar-31 00:34N 48°25' W 124°36'6 5.5
2015-Mar-30 23:33N 48°27' W 124°44'6 6.3
2015-Mar-30 22:34N 48°27' W 124°53'8 7.6
2015-Mar-30 21:33N 48°21' W 124°60'9 8.7
2015-Mar-30 20:32N 48°13' W 125°05'9 8.8
2015-Mar-30 19:33N 48°05' W 125°09'60 8.4
2015-Mar-30 12:21N 47°06' W 124°50'7 8.6
2015-Mar-30 11:33N 46°59' W 124°49'9 8.7
2015-Mar-30 10:33N 46°50' W 124°48'9 8.6
2015-Mar-30 09:33N 46°42' W 124°48'9 8.6
2015-Mar-30 08:33N 46°33' W 124°47'9 8.8
2015-Mar-30 07:33N 46°24' W 124°47'9 8.6
2015-Mar-30 06:33N 46°16' W 124°46'9 8.6
2015-Mar-30 05:33N 46°07' W 124°45'9 8.6
2015-Mar-30 04:33N 45°59' W 124°45'8 8.3
2015-Mar-30 03:33N 45°51' W 124°41'8 8.2
2015-Mar-30 02:33N 45°43' W 124°38'8 8.3
2015-Mar-30 01:33N 45°35' W 124°34'9 8.9
2015-Mar-30 00:34N 45°26' W 124°33'8 8.3
2015-Mar-29 23:33N 45°18' W 124°35'11 8.7
2015-Mar-29 22:16N 45°07' W 124°36'16 8.5
2015-Mar-29 20:26N 44°51' W 124°38'66 8.4
2015-Mar-29 12:32N 43°45' W 124°43'306 7.8
2015-Mar-27 21:06N 38°40' W 124°09'6 8.1
2015-Mar-27 20:22N 38°35' W 124°05'10 8.2
2015-Mar-27 19:10N 38°26' W 123°58'6 8.2
2015-Mar-27 18:25N 38°21' W 123°53'7 8.0
2015-Mar-27 17:34N 38°15' W 123°49'7 7.4
2015-Mar-27 16:34N 38°10' W 123°42'8 7.8
2015-Mar-27 15:33N 38°10' W 123°32'8 7.8
2015-Mar-27 14:33N 38°10' W 123°23'7 6.9
2015-Mar-27 13:34N 38°05' W 123°16'7 7.4
2015-Mar-27 12:34N 37°60' W 123°10'8 7.9
2015-Mar-27 11:34N 37°55' W 123°01'8 8.2
2015-Mar-27 10:33N 37°51' W 122°52'8 7.6
2015-Mar-27 09:34N 37°48' W 122°44'8 7.9
2015-Mar-27 08:33N 37°47' W 122°34'8 8.0
2015-Mar-27 07:34N 37°49' W 122°24'3 2.5
2015-Mar-27 06:34N 37°47' W 122°22'1 0.6
2015-Mar-27 05:31N 37°46' W 122°23'0 0.0
2015-Mar-27 04:31N 37°46' W 122°23'0 0.0
2015-Mar-27 03:31N 37°46' W 122°23'0 0.0
2015-Mar-27 02:31N 37°46' W 122°23'0 0.0
2015-Mar-27 01:31N 37°46' W 122°23'0 0.0
2015-Mar-27 00:31N 37°46' W 122°23'0 0.0
2015-Mar-26 23:31N 37°46' W 122°23'0 0.0
2015-Mar-26 22:31N 37°46' W 122°23'0 0.0
2015-Mar-26 21:31N 37°46' W 122°23'0 0.0
2015-Mar-26 20:31N 37°46' W 122°23'0 0.0
2015-Mar-26 19:31N 37°46' W 122°23'0 0.0
2015-Mar-26 18:28N 37°46' W 122°23'0 0.0
2015-Mar-26 17:31N 37°46' W 122°23'0 0.0
2015-Mar-26 16:28N 37°46' W 122°23'0 0.0
2015-Mar-26 15:31N 37°46' W 122°23'0 0.0
2015-Mar-26 14:31N 37°46' W 122°23'0 0.0
2015-Mar-26 13:31N 37°46' W 122°23'0 0.0
2015-Mar-26 12:31N 37°46' W 122°23'0 0.0
2015-Mar-26 11:31N 37°46' W 122°23'0 0.0
2015-Mar-26 10:31N 37°46' W 122°23'0 0.0
2015-Mar-26 09:31N 37°46' W 122°23'0 0.0
2015-Mar-26 08:31N 37°46' W 122°23'0 0.0
2015-Mar-26 07:28N 37°46' W 122°23'0 0.0
2015-Mar-26 06:31N 37°46' W 122°23'0 0.0
2015-Mar-26 05:28N 37°46' W 122°23'0 0.0
2015-Mar-26 04:34N 37°46' W 122°23'0 0.0
2015-Mar-26 03:33N 37°46' W 122°23'0 0.0
2015-Mar-26 02:33N 37°46' W 122°23'0 0.0
2015-Mar-26 01:33N 37°46' W 122°23'0 0.0
2015-Mar-26 00:33N 37°46' W 122°23'0 0.0
2015-Mar-25 23:33N 37°46' W 122°23'0 0.0
2015-Mar-25 22:33N 37°46' W 122°23'0 0.0
2015-Mar-25 21:33N 37°46' W 122°23'0 0.0
2015-Mar-25 20:33N 37°46' W 122°23'0 0.0
2015-Mar-25 19:33N 37°46' W 122°23'0 0.0
2015-Mar-25 18:33N 37°46' W 122°23'0 0.0
2015-Mar-25 17:33N 37°46' W 122°23'0 0.0
2015-Mar-25 16:34N 37°46' W 122°23'0 0.0
2015-Mar-25 15:33N 37°46' W 122°23'0 0.0
2015-Mar-25 14:33N 37°46' W 122°23'0 0.0
2015-Mar-25 13:33N 37°46' W 122°23'0 0.0
2015-Mar-25 12:33N 37°46' W 122°23'0 0.0
2015-Mar-25 11:33N 37°46' W 122°23'0 0.0
2015-Mar-25 10:33N 37°46' W 122°23'0 0.0
2015-Mar-25 09:33N 37°46' W 122°23'8 8.0
2015-Mar-25 08:33N 37°54' W 122°26'2 2.4
2015-Mar-25 07:33N 37°52' W 122°24'4 4.2
2015-Mar-25 06:33N 37°49' W 122°28'7 6.6
2015-Mar-25 05:33N 37°46' W 122°36'6 6.1
2015-Mar-25 04:33N 37°46' W 122°44'6 6.2
2015-Mar-25 03:33N 37°48' W 122°51'6 6.2
2015-Mar-25 02:33N 37°51' W 122°58'7 6.8
2015-Mar-25 01:33N 37°55' W 123°05'7 6.6
2015-Mar-25 00:33N 37°58' W 123°12'8 7.8
2015-Mar-24 23:33N 38°04' W 123°19'8 7.7
2015-Mar-24 22:33N 38°08' W 123°27'8 7.6
2015-Mar-24 21:33N 38°10' W 123°36'7 7.2
2015-Mar-24 20:33N 38°15' W 123°43'7 7.3
2015-Mar-24 19:33N 38°20' W 123°50'7 7.3
2015-Mar-24 18:33N 38°25' W 123°56'8 7.2
2015-Mar-24 17:28N 38°31' W 124°03'  

Dump ship's entire track history